Anthon, Iowa
Current Conditions -  °F | °C
As of 2:52 AM on Thursday 23 Oct 2014 (Local Time) from KSUX Reporting Station
Overcast Overcast  
Wind Chill: 57°   Ceiling: 4800
Heat Index: 57°   Visibility: 7mi
Dew Point: 56°   Wind: 7mph
Humidity: 96%   Direction: 310°NW
Pressure: 30.03"   Gusts: NA
Location:  42.39°N, 95.87°W
Report Text: KSUX 230752Z AUTO 31006KT 7SM SCT004 OVC048 14/13 A3003 RMK AO2 SLP165 T01390133
Loading
Personal Weather Stations






























Interactive Weather Map New forecast layout! Learn more

10-Day Weather Forecast

Advertisements
Track Severe Weather on mobile